createdAt,value
2022-10-14T00:01:25.708Z,14.75
2022-10-14T00:03:55.961Z,14.50
2022-10-14T00:06:30.516Z,14.50
2022-10-14T00:09:02.394Z,15.50
2022-10-14T00:11:34.011Z,14.50
2022-10-14T00:14:05.996Z,16.00
2022-10-14T00:16:37.227Z,16.00
2022-10-14T00:19:06.882Z,15.00
2022-10-14T00:21:37.755Z,15.25
2022-10-14T00:24:07.067Z,16.00
2022-10-14T00:26:38.842Z,16.00
2022-10-14T00:29:10.493Z,16.00
2022-10-14T00:31:38.913Z,13.50
2022-10-14T00:34:07.330Z,13.50
2022-10-14T00:36:35.703Z,13.75
2022-10-14T00:39:04.055Z,18.50
2022-10-14T00:41:36.060Z,13.00
2022-10-14T00:44:16.146Z,13.50
2022-10-14T00:46:46.900Z,17.25
2022-10-14T00:49:30.309Z,16.25
2022-10-14T00:52:14.746Z,18.50
2022-10-14T00:54:47.355Z,17.00
2022-10-14T00:57:16.928Z,19.00
2022-10-14T00:59:45.442Z,15.50
2022-10-14T01:02:13.909Z,17.50
2022-10-14T01:04:45.748Z,19.75
2022-10-14T01:07:30.325Z,15.25
2022-10-14T01:10:21.998Z,14.50
2022-10-14T01:13:09.884Z,19.50
2022-10-14T01:15:44.351Z,21.25
2022-10-14T01:18:49.716Z,20.75
2022-10-14T01:21:34.425Z,20.00
2022-10-14T01:24:21.296Z,16.50
2022-10-14T01:27:30.920Z,19.25
2022-10-14T01:30:13.217Z,25.00
2022-10-14T01:33:16.143Z,20.25
2022-10-14T01:36:11.024Z,17.50
2022-10-14T01:38:48.306Z,24.75
2022-10-14T01:41:33.778Z,19.50
2022-10-14T01:44:07.668Z,25.25
2022-10-14T01:46:39.435Z,20.00
2022-10-14T01:49:21.378Z,21.25
2022-10-14T01:51:53.842Z,18.00
2022-10-14T01:54:36.281Z,18.50
2022-10-14T01:57:10.052Z,21.25
2022-10-14T01:59:41.645Z,18.75
2022-10-14T02:02:10.031Z,22.00
2022-10-14T02:04:38.699Z,21.25
2022-10-14T02:07:31.080Z,23.50
2022-10-14T02:10:02.201Z,18.75
2022-10-14T02:12:52.334Z,19.75
2022-10-14T02:15:26.895Z,18.50
2022-10-14T02:17:58.228Z,18.25
2022-10-14T02:20:41.137Z,20.50
2022-10-14T02:23:23.274Z,20.75
2022-10-14T02:25:52.597Z,17.25
2022-10-14T02:28:24.587Z,19.50
2022-10-14T02:30:58.802Z,15.00
2022-10-14T02:33:34.249Z,18.50
2022-10-14T02:36:04.983Z,16.00
2022-10-14T02:38:34.699Z,15.75
2022-10-14T02:41:08.807Z,16.00
2022-10-14T02:43:37.341Z,17.25
2022-10-14T02:46:06.725Z,14.75
2022-10-14T02:48:35.273Z,16.50
2022-10-14T02:51:03.703Z,14.50
2022-10-14T02:53:32.087Z,13.75
2022-10-14T02:56:00.458Z,14.50
2022-10-14T02:58:28.792Z,15.75
2022-10-14T03:00:57.380Z,15.00
2022-10-14T03:03:25.832Z,18.50
2022-10-14T03:05:54.196Z,14.25
2022-10-14T03:08:22.548Z,13.50
2022-10-14T03:10:50.986Z,15.25
2022-10-14T03:13:19.360Z,16.00
2022-10-14T03:15:51.651Z,14.75
2022-10-14T03:18:20.534Z,15.50
2022-10-14T03:20:49.243Z,16.25
2022-10-14T03:23:30.397Z,15.50
2022-10-14T03:25:58.830Z,15.50
2022-10-14T03:28:27.344Z,18.25
2022-10-14T03:30:55.775Z,16.25
2022-10-14T03:33:26.097Z,21.75
2022-10-14T03:35:55.124Z,17.50
2022-10-14T03:38:23.639Z,19.75
2022-10-14T03:40:52.141Z,14.50
2022-10-14T03:43:20.515Z,13.75
2022-10-14T03:45:48.978Z,16.75
2022-10-14T03:48:17.314Z,15.75
2022-10-14T03:50:45.757Z,16.50
2022-10-14T03:53:14.231Z,13.50
2022-10-14T03:55:42.667Z,14.50
2022-10-14T03:58:13.181Z,15.75
2022-10-14T04:00:41.724Z,12.25
2022-10-14T04:03:12.384Z,15.25
2022-10-14T04:05:40.877Z,13.75
2022-10-14T04:08:09.405Z,10.25
2022-10-14T04:10:38.020Z,14.75
2022-10-14T04:13:06.432Z,14.50
2022-10-14T04:15:36.865Z,14.00
2022-10-14T04:18:05.427Z,16.25
2022-10-14T04:20:34.444Z,11.50
2022-10-14T04:23:02.925Z,12.50
2022-10-14T04:25:31.350Z,12.00
2022-10-14T04:27:59.677Z,13.00
2022-10-14T04:30:28.077Z,13.25
2022-10-14T04:32:56.403Z,14.00
2022-10-14T04:35:24.786Z,14.25
2022-10-14T04:37:53.495Z,14.25
2022-10-14T04:40:26.600Z,12.75
2022-10-14T04:42:59.523Z,13.00
2022-10-14T04:45:28.016Z,14.00
2022-10-14T04:47:56.450Z,13.50
2022-10-14T04:50:25.045Z,16.00
2022-10-14T04:52:53.459Z,13.50
2022-10-14T04:55:21.844Z,17.00
2022-10-14T04:57:50.259Z,10.50
2022-10-14T05:00:18.945Z,10.25
2022-10-14T05:02:47.527Z,11.75
2022-10-14T05:05:16.193Z,14.50
2022-10-14T05:07:45.296Z,14.25
2022-10-14T05:10:13.765Z,12.00
2022-10-14T05:12:42.121Z,12.00
2022-10-14T05:15:11.071Z,13.75
2022-10-14T05:17:40.242Z,13.25
2022-10-14T05:20:09.134Z,13.25
2022-10-14T05:22:37.625Z,14.75
2022-10-14T05:25:06.681Z,14.00
2022-10-14T05:27:35.086Z,14.00
2022-10-14T05:30:03.757Z,17.25
2022-10-14T05:32:32.441Z,13.50
2022-10-14T05:35:00.783Z,12.00
2022-10-14T05:37:29.237Z,15.25
2022-10-14T05:39:57.645Z,12.50
2022-10-14T05:42:26.021Z,12.00
2022-10-14T05:44:54.552Z,12.25
2022-10-14T05:47:23.235Z,13.75
2022-10-14T05:49:51.693Z,14.50
2022-10-14T05:52:20.398Z,14.50
2022-10-14T05:54:49.129Z,15.50
2022-10-14T05:57:17.531Z,13.25
2022-10-14T05:59:45.955Z,13.00
2022-10-14T06:02:14.368Z,12.00
2022-10-14T06:04:43.483Z,13.00
2022-10-14T06:07:11.857Z,11.50
2022-10-14T06:09:40.653Z,11.25
2022-10-14T06:12:09.413Z,10.75
2022-10-14T06:14:39.547Z,9.50
2022-10-14T06:17:08.890Z,12.25
2022-10-14T06:19:37.384Z,10.25
2022-10-14T06:22:05.836Z,13.25
2022-10-14T06:24:34.256Z,12.75
2022-10-14T06:27:02.708Z,9.50
2022-10-14T06:29:38.576Z,8.00
2022-10-14T06:32:09.142Z,10.50
2022-10-14T06:34:37.953Z,11.00
2022-10-14T06:37:06.259Z,8.75
2022-10-14T06:39:34.657Z,10.50
2022-10-14T06:42:04.244Z,8.25
2022-10-14T06:44:32.609Z,13.00
2022-10-14T06:47:01.189Z,12.00
2022-10-14T06:49:29.631Z,11.75
2022-10-14T06:51:57.994Z,12.50
2022-10-14T06:54:26.417Z,9.75
2022-10-14T06:56:54.880Z,10.00
2022-10-14T06:59:23.352Z,10.00
2022-10-14T07:01:51.780Z,10.50
2022-10-14T07:04:20.190Z,10.25
2022-10-14T07:06:48.604Z,8.75
2022-10-14T07:09:16.942Z,9.50
2022-10-14T07:11:45.414Z,9.00
2022-10-14T07:14:13.878Z,9.50
2022-10-14T07:16:44.737Z,10.00
2022-10-14T07:19:13.565Z,10.75
2022-10-14T07:21:43.785Z,8.50
2022-10-14T07:24:15.857Z,11.00
2022-10-14T07:26:44.336Z,9.75
2022-10-14T07:29:21.139Z,9.75
2022-10-14T07:31:49.648Z,10.50
2022-10-14T07:34:18.123Z,8.50
2022-10-14T07:36:46.636Z,10.75
2022-10-14T07:39:15.217Z,8.50
2022-10-14T07:41:43.695Z,9.25
2022-10-14T07:44:14.868Z,8.50
2022-10-14T07:46:45.526Z,8.75
2022-10-14T07:49:19.879Z,7.50
2022-10-14T07:51:49.630Z,11.50
2022-10-14T07:54:24.272Z,9.50
2022-10-14T07:56:52.816Z,8.75
2022-10-14T07:59:22.439Z,9.25
2022-10-14T08:01:52.319Z,8.25
2022-10-14T08:04:21.666Z,10.00
2022-10-14T08:06:50.571Z,9.00
2022-10-14T08:09:20.080Z,9.00
2022-10-14T08:11:49.120Z,7.75
2022-10-14T08:14:18.026Z,7.75
2022-10-14T08:16:47.882Z,9.25
2022-10-14T08:19:16.483Z,6.75
2022-10-14T08:21:56.103Z,8.25
2022-10-14T08:24:24.501Z,6.75
2022-10-14T08:26:55.634Z,8.00
2022-10-14T08:29:24.329Z,7.25
2022-10-14T08:31:55.120Z,8.00
2022-10-14T08:34:25.316Z,8.50
2022-10-14T08:36:53.820Z,7.75
2022-10-14T08:39:23.016Z,6.50
2022-10-14T08:42:09.926Z,6.50
2022-10-14T08:44:57.332Z,7.50
2022-10-14T08:47:33.463Z,7.00
2022-10-14T08:50:22.793Z,9.25
2022-10-14T08:53:11.309Z,6.25
2022-10-14T08:55:47.823Z,7.25
2022-10-14T08:58:40.592Z,6.25
2022-10-14T09:01:36.161Z,11.25
2022-10-14T09:04:08.357Z,5.75
2022-10-14T09:06:42.104Z,6.25
2022-10-14T09:09:20.381Z,10.00
2022-10-14T09:11:55.655Z,7.75
2022-10-14T09:14:33.610Z,7.75
2022-10-14T09:17:10.301Z,8.75
2022-10-14T09:19:59.698Z,5.00
2022-10-14T09:22:29.377Z,6.75
2022-10-14T09:24:59.999Z,9.50
2022-10-14T09:27:30.653Z,6.00
2022-10-14T09:30:02.589Z,8.25
2022-10-14T09:32:41.836Z,9.50
2022-10-14T09:35:18.312Z,8.75
2022-10-14T09:37:46.806Z,10.50
2022-10-14T09:40:33.382Z,7.50
2022-10-14T09:43:12.105Z,6.50
2022-10-14T09:45:54.349Z,9.00
2022-10-14T09:48:54.263Z,9.75
2022-10-14T09:51:43.834Z,9.75
2022-10-14T09:57:24.294Z,9.00
2022-10-14T10:00:03.276Z,8.25
2022-10-14T10:02:44.511Z,8.50
2022-10-14T10:05:25.731Z,8.50
2022-10-14T10:08:18.309Z,9.75
2022-10-14T10:11:16.128Z,9.50
2022-10-14T10:13:49.171Z,13.75
2022-10-14T10:16:27.715Z,10.25
2022-10-14T10:18:58.226Z,8.25
2022-10-14T10:21:31.494Z,11.25
2022-10-14T10:24:02.417Z,12.25
2022-10-14T10:26:34.277Z,8.25
2022-10-14T10:29:06.022Z,8.25
2022-10-14T10:31:49.337Z,8.25
2022-10-14T10:34:29.685Z,8.75
2022-10-14T10:37:10.663Z,14.25
2022-10-14T10:40:07.778Z,11.75
2022-10-14T10:42:41.658Z,8.50
2022-10-14T10:45:24.974Z,10.50
2022-10-14T10:48:09.081Z,7.75
2022-10-14T10:50:58.463Z,11.25
2022-10-14T10:53:50.812Z,10.50
2022-10-14T10:56:47.942Z,10.50
2022-10-14T10:59:45.635Z,11.00
2022-10-14T11:02:14.684Z,9.25
2022-10-14T11:05:08.133Z,9.75
2022-10-14T11:08:06.615Z,9.25
2022-10-14T11:11:05.042Z,10.00
2022-10-14T11:13:44.090Z,10.25
2022-10-14T11:16:27.537Z,8.50
2022-10-14T11:19:25.449Z,10.00
2022-10-14T11:22:17.653Z,10.25
2022-10-14T11:25:30.282Z,11.00
2022-10-14T11:28:18.057Z,11.00
2022-10-14T11:30:50.315Z,11.00
2022-10-14T11:33:31.632Z,11.00
2022-10-14T11:36:17.088Z,11.25
2022-10-14T11:38:51.019Z,11.25
2022-10-14T11:41:55.053Z,11.00
2022-10-14T11:44:23.391Z,10.50
2022-10-14T11:46:57.459Z,12.50
2022-10-14T11:49:33.969Z,11.00
2022-10-14T11:52:08.681Z,12.00
2022-10-14T11:54:49.408Z,11.75
2022-10-14T11:57:31.098Z,11.25
2022-10-14T12:00:05.379Z,13.50
2022-10-14T12:03:01.474Z,13.00
2022-10-14T12:05:53.015Z,11.00
2022-10-14T12:08:33.225Z,13.50
2022-10-14T12:11:07.329Z,14.25
2022-10-14T12:13:59.394Z,16.25
2022-10-14T12:16:28.999Z,16.75
2022-10-14T12:18:59.231Z,15.75
2022-10-14T12:21:33.492Z,18.00
2022-10-14T12:24:09.121Z,12.75
2022-10-14T12:26:57.975Z,15.25
2022-10-14T12:29:33.983Z,14.50
2022-10-14T12:32:05.784Z,17.75
2022-10-14T12:34:41.179Z,15.25
2022-10-14T12:37:38.958Z,13.00
2022-10-14T12:40:07.939Z,20.25
2022-10-14T12:43:04.072Z,16.00
2022-10-14T12:45:36.405Z,16.00
2022-10-14T12:48:17.432Z,20.50
2022-10-14T12:50:47.840Z,20.50
2022-10-14T12:53:34.927Z,16.50
2022-10-14T12:56:06.136Z,20.75
2022-10-14T12:58:37.567Z,22.00
2022-10-14T13:01:24.444Z,20.00
2022-10-14T13:03:56.358Z,20.50
2022-10-14T13:06:43.443Z,20.50
2022-10-14T13:09:18.115Z,19.75
2022-10-14T13:12:06.589Z,20.25
2022-10-14T13:15:02.135Z,19.50
2022-10-14T13:17:49.731Z,17.25
2022-10-14T13:20:36.630Z,19.00
2022-10-14T13:23:23.765Z,18.25
2022-10-14T13:25:53.963Z,20.75
2022-10-14T13:28:40.148Z,21.75
2022-10-14T13:31:44.779Z,17.25
2022-10-14T13:34:35.880Z,21.00
2022-10-14T13:37:22.479Z,22.50
2022-10-14T13:39:50.881Z,20.25
2022-10-14T13:42:33.321Z,18.75
2022-10-14T13:45:17.756Z,15.25
2022-10-14T13:47:50.097Z,17.25
2022-10-14T13:50:23.697Z,19.75
2022-10-14T13:52:59.052Z,20.00
2022-10-14T13:55:28.501Z,18.50
2022-10-14T13:58:14.586Z,20.00
2022-10-14T14:00:50.097Z,21.75
2022-10-14T14:03:24.994Z,16.00
2022-10-14T14:05:54.677Z,16.75
2022-10-14T14:08:41.042Z,20.00
2022-10-14T14:11:16.789Z,19.75
2022-10-14T14:14:15.763Z,19.50
2022-10-14T14:16:56.699Z,20.00
2022-10-14T14:19:38.029Z,20.50
2022-10-14T14:22:20.835Z,18.50
2022-10-14T14:24:50.520Z,20.50
2022-10-14T14:27:25.080Z,20.00
2022-10-14T14:29:55.408Z,18.00
2022-10-14T14:32:31.943Z,22.00
2022-10-14T14:35:13.630Z,20.75
2022-10-14T14:37:55.529Z,19.25
2022-10-14T14:40:31.061Z,22.00
2022-10-14T14:43:04.949Z,20.00
2022-10-14T14:45:43.772Z,23.50
2022-10-14T14:48:16.679Z,23.50
2022-10-14T14:50:46.788Z,21.00
2022-10-14T14:53:30.710Z,19.00
2022-10-14T14:56:14.773Z,25.75
2022-10-14T14:58:51.644Z,22.75
2022-10-14T15:01:26.390Z,22.25
2022-10-14T15:04:12.714Z,20.00
2022-10-14T15:06:51.596Z,26.00
2022-10-14T15:09:32.037Z,22.25
2022-10-14T15:12:04.109Z,30.00
2022-10-14T15:14:48.643Z,28.00
2022-10-14T15:17:38.779Z,28.75
2022-10-14T15:20:07.238Z,29.50
2022-10-14T15:22:44.571Z,24.50
2022-10-14T15:25:14.355Z,27.00
2022-10-14T15:27:46.640Z,24.25
2022-10-14T15:30:23.686Z,25.25
2022-10-14T15:32:54.026Z,25.50
2022-10-14T15:35:23.942Z,25.75
2022-10-14T15:37:53.155Z,28.50
2022-10-14T15:40:24.700Z,29.00
2022-10-14T15:42:53.112Z,24.75
2022-10-14T15:45:22.808Z,24.00
2022-10-14T15:47:59.138Z,22.75
2022-10-14T15:50:28.029Z,29.75
2022-10-14T15:52:57.834Z,24.25
2022-10-14T15:55:35.122Z,27.75
2022-10-14T15:58:04.327Z,30.75
2022-10-14T16:00:33.429Z,29.00
2022-10-14T16:03:01.894Z,26.50
2022-10-14T16:05:30.872Z,27.25
2022-10-14T16:07:59.692Z,22.75
2022-10-14T16:10:29.444Z,25.75
2022-10-14T16:13:00.537Z,23.75
2022-10-14T16:15:47.612Z,24.75
2022-10-14T16:18:16.625Z,25.50
2022-10-14T16:20:45.491Z,24.25
2022-10-14T16:23:18.721Z,22.50
2022-10-14T16:25:50.176Z,26.50
2022-10-14T16:28:20.383Z,25.75
2022-10-14T16:30:50.329Z,20.25
2022-10-14T16:33:21.022Z,20.00
2022-10-14T16:35:55.463Z,22.25
2022-10-14T16:38:25.170Z,26.50
2022-10-14T16:40:58.167Z,21.75
2022-10-14T16:43:27.751Z,24.50
2022-10-14T16:46:00.790Z,19.50
2022-10-14T16:48:30.265Z,21.50
2022-10-14T16:50:58.650Z,21.00
2022-10-14T16:53:44.534Z,20.75
2022-10-14T16:56:40.317Z,18.25
2022-10-14T16:59:11.367Z,19.75
2022-10-14T17:01:41.007Z,18.75
2022-10-14T17:04:10.606Z,17.75
2022-10-14T17:06:39.028Z,17.50
2022-10-14T17:09:07.723Z,17.00
2022-10-14T17:11:36.257Z,15.50
2022-10-14T17:14:05.085Z,17.00
2022-10-14T17:16:33.465Z,16.75
2022-10-14T17:19:02.401Z,14.75
2022-10-14T17:21:30.885Z,15.25
2022-10-14T17:24:03.085Z,18.50
2022-10-14T17:26:33.282Z,14.00
2022-10-14T17:29:02.059Z,16.25
2022-10-14T17:31:31.573Z,12.75
2022-10-14T17:34:01.210Z,15.00
2022-10-14T17:36:31.763Z,12.00
2022-10-14T17:39:00.974Z,14.25
2022-10-14T17:41:31.471Z,12.75
2022-10-14T17:44:02.400Z,15.75
2022-10-14T17:46:32.433Z,14.00
2022-10-14T17:49:04.851Z,13.00
2022-10-14T17:51:33.990Z,13.00
2022-10-14T17:54:05.071Z,10.50
2022-10-14T17:56:35.556Z,13.75
2022-10-14T17:59:07.227Z,11.75
2022-10-14T18:01:37.874Z,13.75
2022-10-14T18:06:48.338Z,12.75
2022-10-14T18:09:16.846Z,13.25
2022-10-14T18:14:34.991Z,14.00
2022-10-14T18:17:03.696Z,10.75
2022-10-14T18:19:32.071Z,13.00
2022-10-14T18:22:00.545Z,12.50
2022-10-14T18:24:28.998Z,13.00
2022-10-14T18:26:57.314Z,13.00
2022-10-14T18:29:25.987Z,13.75
2022-10-14T18:31:54.302Z,11.50
2022-10-14T18:34:26.442Z,9.75
2022-10-14T18:36:55.207Z,12.00
2022-10-14T18:39:23.572Z,10.75
2022-10-14T18:41:51.874Z,13.25
2022-10-14T18:44:20.348Z,13.00
2022-10-14T18:46:48.774Z,12.75
2022-10-14T18:49:17.431Z,12.25
2022-10-14T18:51:46.739Z,13.00
2022-10-14T18:54:18.853Z,12.25
2022-10-14T18:56:48.716Z,14.50
2022-10-14T18:59:20.172Z,12.75
2022-10-14T19:01:53.971Z,13.00
2022-10-14T19:04:25.012Z,11.00
2022-10-14T19:06:53.546Z,8.25
2022-10-14T19:09:25.467Z,11.75
2022-10-14T19:11:54.331Z,11.00
2022-10-14T19:14:23.314Z,11.25
2022-10-14T19:16:51.805Z,8.75
2022-10-14T19:19:21.414Z,11.00
2022-10-14T19:21:52.065Z,10.75
2022-10-14T19:24:20.499Z,13.75
2022-10-14T19:26:49.747Z,11.00
2022-10-14T19:29:18.286Z,11.00
2022-10-14T19:31:46.990Z,11.50
2022-10-14T19:34:17.453Z,10.75
2022-10-14T19:36:46.936Z,11.00
2022-10-14T19:39:17.931Z,14.00
2022-10-14T19:41:48.272Z,11.25
2022-10-14T19:44:17.686Z,15.25
2022-10-14T19:46:46.931Z,10.75
2022-10-14T19:49:16.812Z,11.50
2022-10-14T19:51:45.298Z,14.50
2022-10-14T19:54:14.562Z,13.50
2022-10-14T19:56:43.184Z,13.25
2022-10-14T19:59:14.407Z,10.25
2022-10-14T20:01:43.104Z,10.75
2022-10-14T20:04:11.721Z,11.50
2022-10-14T20:06:41.100Z,11.25
2022-10-14T20:09:11.683Z,11.25
2022-10-14T20:11:40.047Z,10.00
2022-10-14T20:14:08.549Z,11.00
2022-10-14T20:16:36.924Z,13.00
2022-10-14T20:19:05.358Z,12.00
2022-10-14T20:21:33.733Z,11.00
2022-10-14T20:24:02.115Z,13.00
2022-10-14T20:26:30.512Z,11.50
2022-10-14T20:28:59.346Z,10.00
2022-10-14T20:31:27.784Z,10.75
2022-10-14T20:33:58.030Z,13.25
2022-10-14T20:36:26.477Z,12.00
2022-10-14T20:38:54.938Z,12.50
2022-10-14T20:41:26.912Z,9.00
2022-10-14T20:43:56.274Z,9.00
2022-10-14T20:46:26.047Z,15.00
2022-10-14T20:48:59.161Z,12.50
2022-10-14T20:51:28.223Z,12.75
2022-10-14T20:54:02.017Z,11.75
2022-10-14T20:56:35.657Z,12.50
2022-10-14T20:59:09.287Z,11.50
2022-10-14T21:01:38.611Z,11.00
2022-10-14T21:04:08.674Z,11.75
2022-10-14T21:06:39.590Z,15.50
2022-10-14T21:09:08.680Z,13.00
2022-10-14T21:11:37.085Z,13.50
2022-10-14T21:14:05.654Z,14.75
2022-10-14T21:16:36.310Z,12.00
2022-10-14T21:19:10.341Z,13.75
2022-10-14T21:21:43.122Z,13.50
2022-10-14T21:24:15.606Z,12.50
2022-10-14T21:26:44.279Z,11.00
2022-10-14T21:29:12.774Z,10.75
2022-10-14T21:31:41.748Z,11.50
2022-10-14T21:34:12.059Z,10.00
2022-10-14T21:36:41.422Z,10.75
2022-10-14T21:39:13.727Z,11.00
2022-10-14T21:41:43.638Z,13.00
2022-10-14T21:44:16.911Z,13.50
2022-10-14T21:46:45.375Z,11.00
2022-10-14T21:49:14.024Z,10.50
2022-10-14T21:51:42.974Z,11.00
2022-10-14T21:54:15.283Z,12.25
2022-10-14T21:56:43.728Z,12.50
2022-10-14T21:59:13.417Z,14.75
2022-10-14T22:01:42.935Z,12.25
2022-10-14T22:04:12.608Z,14.50
2022-10-14T22:06:41.143Z,13.50
2022-10-14T22:09:09.607Z,13.00
2022-10-14T22:11:40.718Z,15.25
2022-10-14T22:14:13.621Z,14.75
2022-10-14T22:16:42.248Z,11.50
2022-10-14T22:19:12.768Z,13.75
2022-10-14T22:21:42.971Z,11.50
2022-10-14T22:24:11.638Z,12.75
2022-10-14T22:26:41.488Z,12.00
2022-10-14T22:29:18.509Z,11.25
2022-10-14T22:31:47.994Z,11.25
2022-10-14T22:34:18.554Z,11.00
2022-10-14T22:36:47.174Z,9.25
2022-10-14T22:39:17.951Z,11.25
2022-10-14T22:41:46.283Z,11.00
2022-10-14T22:44:14.689Z,9.25
2022-10-14T22:46:43.082Z,10.00
2022-10-14T22:49:11.815Z,11.50
2022-10-14T22:51:41.619Z,11.25
2022-10-14T22:54:11.207Z,14.00
2022-10-14T22:56:40.478Z,11.00
2022-10-14T22:59:11.961Z,11.25
2022-10-14T23:01:42.763Z,11.00
2022-10-14T23:04:12.164Z,10.00
2022-10-14T23:06:44.469Z,9.00
2022-10-14T23:09:12.872Z,10.00
2022-10-14T23:11:41.466Z,10.75
2022-10-14T23:14:09.950Z,14.00
2022-10-14T23:16:39.961Z,13.25
2022-10-14T23:19:08.316Z,10.25
2022-10-14T23:21:38.720Z,10.25
2022-10-14T23:24:09.520Z,10.50
2022-10-14T23:26:38.255Z,12.25
2022-10-14T23:29:12.489Z,13.00
2022-10-14T23:31:41.814Z,12.50
2022-10-14T23:34:14.083Z,10.25
2022-10-14T23:36:43.300Z,10.00
2022-10-14T23:39:12.019Z,11.00
2022-10-14T23:41:40.584Z,8.50
2022-10-14T23:44:09.149Z,9.25
2022-10-14T23:46:37.663Z,11.00
2022-10-14T23:49:21.195Z,9.50
2022-10-14T23:51:53.800Z,8.75
2022-10-14T23:54:22.354Z,10.25
2022-10-14T23:56:50.757Z,12.50
2022-10-14T23:59:19.280Z,9.25
